createdAt,value
2024-02-10T00:00:25.535Z,90.68
2024-02-10T00:02:55.730Z,90.98
2024-02-10T00:05:05.533Z,91.05
2024-02-10T00:07:15.268Z,90.88
2024-02-10T00:09:25.057Z,90.75
2024-02-10T00:11:34.860Z,90.71
2024-02-10T00:13:44.753Z,90.74
2024-02-10T00:15:55.616Z,90.68
2024-02-10T00:18:07.223Z,90.76
2024-02-10T00:20:17.812Z,90.87
2024-02-10T00:22:28.628Z,90.82
2024-02-10T00:24:39.566Z,90.93
2024-02-10T00:26:49.456Z,91.21
2024-02-10T00:28:59.688Z,91.25
2024-02-10T00:31:09.870Z,91.18
2024-02-10T00:33:19.727Z,91.01
2024-02-10T00:35:29.355Z,91.03
2024-02-10T00:37:39.465Z,90.70
2024-02-10T00:39:49.475Z,90.61
2024-02-10T00:41:59.209Z,90.81
2024-02-10T00:44:09.016Z,90.79
2024-02-10T00:46:19.062Z,90.93
2024-02-10T00:48:29.838Z,90.70
2024-02-10T00:50:40.335Z,90.79
2024-02-10T00:52:49.884Z,90.68
2024-02-10T01:36:48.777Z,91.76
2024-02-10T01:39:02.750Z,91.78
2024-02-10T01:41:16.226Z,92.11
2024-02-10T01:43:29.519Z,92.35
2024-02-10T01:45:44.634Z,92.64
2024-02-10T01:47:57.962Z,92.44
2024-02-10T01:50:12.265Z,92.14
2024-02-10T01:52:25.439Z,92.01
2024-02-10T01:54:40.580Z,92.12
2024-02-10T01:56:55.783Z,92.14
2024-02-10T01:59:10.245Z,92.31
2024-02-10T02:01:23.967Z,92.63
2024-02-10T02:03:37.294Z,92.69
2024-02-10T02:05:51.698Z,92.70
2024-02-10T02:08:06.885Z,92.77
2024-02-10T02:10:23.602Z,92.85
2024-02-10T02:12:37.255Z,92.81
2024-02-10T02:14:50.863Z,92.74
2024-02-10T02:17:06.908Z,92.80
2024-02-10T02:19:20.542Z,92.94
2024-02-10T02:21:34.583Z,93.09
2024-02-10T02:23:47.375Z,93.51
2024-02-10T02:26:00.070Z,93.49
2024-02-10T02:28:13.436Z,93.60
2024-02-10T02:30:26.233Z,93.84
2024-02-10T02:32:40.491Z,93.92
2024-02-10T02:34:54.411Z,93.81
2024-02-10T02:37:09.027Z,93.82
2024-02-10T02:39:22.494Z,93.72
2024-02-10T02:41:36.322Z,93.81
2024-02-10T02:43:50.959Z,93.85
2024-02-10T02:46:03.608Z,93.95
2024-02-10T02:48:17.178Z,94.00
2024-02-10T02:50:29.935Z,94.00
2024-02-10T02:52:43.929Z,94.07
2024-02-10T02:54:56.684Z,94.07
2024-02-10T02:57:10.557Z,94.20
2024-02-10T02:59:24.085Z,94.23
2024-02-10T03:01:36.709Z,94.05
2024-02-10T03:03:52.542Z,94.17
2024-02-10T03:06:05.235Z,94.37
2024-02-10T03:08:17.991Z,94.44
2024-02-10T03:10:31.093Z,94.37
2024-02-10T03:12:45.937Z,94.42
2024-02-10T03:15:01.872Z,94.33
2024-02-10T03:17:15.977Z,94.29
2024-02-10T03:19:29.041Z,94.24
2024-02-10T03:21:41.821Z,94.16
2024-02-10T03:23:55.143Z,94.48
2024-02-10T03:26:08.284Z,94.29
2024-02-10T03:28:20.887Z,94.34
2024-02-10T03:30:33.585Z,94.55
2024-02-10T03:32:46.516Z,94.40
2024-02-10T03:34:59.278Z,94.42
2024-02-10T03:37:12.766Z,94.55
2024-02-10T03:39:25.681Z,94.64
2024-02-10T03:41:39.272Z,94.78
2024-02-10T03:43:52.279Z,94.81
2024-02-10T03:46:05.151Z,94.96
2024-02-10T03:48:18.901Z,94.97
2024-02-10T03:50:31.979Z,94.93
2024-02-10T03:52:45.424Z,94.96
2024-02-10T03:54:58.127Z,94.86
2024-02-10T03:57:11.173Z,94.97
2024-02-10T03:59:24.819Z,95.13
2024-02-10T04:01:37.500Z,95.20
2024-02-10T04:03:51.179Z,95.41
2024-02-10T04:06:05.196Z,95.49
2024-02-10T04:08:21.096Z,95.44
2024-02-10T04:10:34.261Z,95.39
2024-02-10T04:12:47.336Z,95.44
2024-02-10T04:15:01.234Z,95.54
2024-02-10T04:17:14.876Z,95.71
2024-02-10T04:19:29.193Z,95.66
2024-02-10T04:21:42.992Z,95.70
2024-02-10T04:23:55.948Z,95.76
2024-02-10T04:26:09.630Z,95.86
2024-02-10T04:28:22.560Z,95.95
2024-02-10T04:30:35.777Z,96.11
2024-02-10T04:32:49.884Z,96.05
2024-02-10T04:35:02.641Z,96.30
2024-02-10T04:37:15.493Z,96.32
2024-02-10T04:39:28.965Z,96.47
2024-02-10T04:41:41.684Z,96.44
2024-02-10T04:43:55.058Z,96.68
2024-02-10T04:46:08.562Z,96.68
2024-02-10T04:48:22.213Z,96.82
2024-02-10T04:50:36.128Z,96.88
2024-02-10T04:52:50.064Z,97.01
2024-02-10T04:55:02.789Z,97.06
2024-02-10T04:57:15.567Z,97.27
2024-02-10T04:59:29.142Z,97.26
2024-02-10T05:01:41.788Z,97.19
2024-02-10T05:03:55.053Z,97.20
2024-02-10T05:06:10.353Z,97.19
2024-02-10T05:08:23.177Z,97.34
2024-02-10T05:10:36.533Z,97.61
2024-02-10T05:12:49.914Z,97.67
2024-02-10T05:15:02.739Z,97.50
2024-02-10T05:17:16.142Z,97.72
2024-02-10T05:19:29.864Z,97.91
2024-02-10T05:21:43.122Z,97.80
2024-02-10T05:23:55.959Z,97.89
2024-02-10T05:26:08.734Z,97.89
2024-02-10T05:28:25.463Z,97.91
2024-02-10T05:30:38.582Z,97.97
2024-02-10T05:32:52.337Z,98.25
2024-02-10T05:35:05.148Z,98.23
2024-02-10T05:37:17.953Z,98.29
2024-02-10T05:39:31.058Z,98.29
2024-02-10T05:41:44.240Z,98.29
2024-02-10T05:43:57.057Z,98.29
2024-02-10T05:46:11.928Z,98.37
2024-02-10T05:48:31.995Z,98.33
2024-02-10T05:50:45.650Z,98.16
2024-02-10T05:53:00.535Z,98.21
2024-02-10T05:55:14.090Z,98.07
2024-02-10T05:57:26.876Z,98.05
2024-02-10T05:59:41.011Z,98.14
2024-02-10T06:01:54.682Z,98.15
2024-02-10T06:04:11.638Z,98.08
2024-02-10T06:06:24.414Z,98.09
2024-02-10T06:08:37.934Z,98.16
2024-02-10T06:10:52.714Z,98.08
2024-02-10T06:13:05.482Z,98.36
2024-02-10T06:15:20.076Z,98.14
2024-02-10T06:17:37.262Z,98.15
2024-02-10T06:19:51.131Z,98.13
2024-02-10T06:22:04.141Z,98.14
2024-02-10T06:24:16.968Z,98.31
2024-02-10T06:26:29.605Z,98.27
2024-02-10T06:28:42.380Z,98.26
2024-02-10T06:30:56.722Z,98.39
2024-02-10T06:33:10.424Z,98.18
2024-02-10T06:35:23.072Z,98.14
2024-02-10T06:37:34.486Z,98.27
2024-02-10T06:39:47.151Z,98.34
2024-02-10T06:42:01.644Z,98.48
2024-02-10T06:44:14.457Z,98.54
2024-02-10T06:46:27.303Z,98.49
2024-02-10T06:48:43.738Z,98.56
2024-02-10T06:50:58.180Z,98.76
2024-02-10T06:53:12.153Z,98.57
2024-02-10T06:55:26.084Z,98.67
2024-02-10T06:57:43.886Z,98.73
2024-02-10T06:59:57.125Z,98.83
2024-02-10T07:02:10.767Z,99.02
2024-02-10T07:04:23.571Z,98.83
2024-02-10T07:06:36.637Z,98.59
2024-02-10T07:08:50.587Z,98.53
2024-02-10T07:11:03.420Z,98.57
2024-02-10T07:13:17.014Z,98.48
2024-02-10T07:15:32.358Z,98.41
2024-02-10T07:17:46.294Z,98.55
2024-02-10T07:19:59.072Z,98.58
2024-02-10T07:22:13.163Z,98.54
2024-02-10T07:24:27.250Z,98.50
2024-02-10T07:26:40.228Z,98.44
2024-02-10T07:28:56.065Z,98.45
2024-02-10T07:31:10.241Z,98.33
2024-02-10T07:33:24.343Z,98.26
2024-02-10T07:35:37.721Z,98.04
2024-02-10T07:37:53.028Z,98.21
2024-02-10T07:40:06.461Z,98.23
2024-02-10T07:42:19.374Z,98.25
2024-02-10T07:44:33.082Z,98.16
2024-02-10T07:46:46.231Z,98.25
2024-02-10T07:48:59.897Z,98.30
2024-02-10T07:51:12.943Z,98.22
2024-02-10T07:53:25.843Z,98.33
2024-02-10T07:55:39.778Z,98.29
2024-02-10T07:57:53.556Z,98.27
2024-02-10T08:00:11.855Z,98.34
2024-02-10T08:02:27.837Z,98.38
2024-02-10T08:04:41.726Z,98.57
2024-02-10T08:06:54.416Z,98.63
2024-02-10T08:09:07.417Z,98.68
2024-02-10T08:11:20.120Z,98.61
2024-02-10T08:13:35.228Z,98.70
2024-02-10T08:15:48.803Z,98.83
2024-02-10T08:18:07.689Z,98.84
2024-02-10T08:20:22.138Z,98.88
2024-02-10T08:22:37.046Z,98.93
2024-02-10T08:24:50.972Z,99.19
2024-02-10T08:27:03.666Z,99.28
2024-02-10T08:29:16.249Z,99.23
2024-02-10T08:31:36.531Z,99.22
2024-02-10T08:33:50.399Z,99.05
2024-02-10T08:36:03.320Z,99.12
2024-02-10T08:38:17.099Z,99.23
2024-02-10T08:40:29.842Z,99.08
2024-02-10T08:42:44.262Z,99.19
2024-02-10T08:44:57.715Z,99.26
2024-02-10T08:47:11.360Z,99.00
2024-02-10T08:49:24.490Z,98.77
2024-02-10T08:51:37.439Z,98.82
2024-02-10T08:53:50.696Z,98.95
2024-02-10T08:56:05.838Z,98.96
2024-02-10T08:58:18.687Z,98.69
2024-02-10T09:00:31.375Z,98.47
2024-02-10T09:02:44.106Z,98.46
2024-02-10T09:04:58.001Z,98.31
2024-02-10T09:07:10.989Z,98.23
2024-02-10T09:09:23.993Z,98.21
2024-02-10T09:11:39.000Z,98.10
2024-02-10T09:13:52.365Z,98.15
2024-02-10T09:16:06.209Z,97.97
2024-02-10T09:18:19.435Z,97.93
2024-02-10T09:20:33.473Z,97.76
2024-02-10T09:22:46.954Z,97.83
2024-02-10T09:24:59.543Z,97.83
2024-02-10T09:27:13.096Z,97.76
2024-02-10T09:29:25.790Z,97.86
2024-02-10T09:31:38.386Z,97.95
2024-02-10T09:33:50.986Z,97.86
2024-02-10T09:36:03.700Z,97.95
2024-02-10T09:38:16.987Z,97.96
2024-02-10T09:40:29.636Z,98.04
2024-02-10T09:42:48.576Z,98.00
2024-02-10T09:45:01.674Z,97.89
2024-02-10T09:47:18.923Z,97.94
2024-02-10T09:49:32.281Z,97.92
2024-02-10T09:51:45.464Z,97.99
2024-02-10T09:53:58.209Z,97.96
2024-02-10T09:56:13.022Z,97.88
2024-02-10T09:58:27.201Z,97.84
2024-02-10T10:00:40.302Z,97.96
2024-02-10T10:02:53.935Z,97.89
2024-02-10T10:05:07.279Z,98.10
2024-02-10T10:07:20.319Z,97.86
2024-02-10T10:09:36.146Z,97.95
2024-02-10T10:11:49.361Z,98.02
2024-02-10T10:14:03.158Z,97.98
2024-02-10T10:16:17.906Z,98.11
2024-02-10T10:18:31.955Z,98.20
2024-02-10T10:20:48.015Z,98.24
2024-02-10T10:23:02.323Z,98.37
2024-02-10T10:25:15.477Z,98.23
2024-02-10T10:27:28.685Z,98.15
2024-02-10T10:29:43.623Z,98.17
2024-02-10T10:31:58.170Z,98.26
2024-02-10T10:34:12.405Z,98.51
2024-02-10T10:36:26.597Z,98.42
2024-02-10T10:38:40.299Z,98.69
2024-02-10T10:40:55.978Z,98.68
2024-02-10T10:43:16.446Z,98.69
2024-02-10T10:45:30.987Z,98.63
2024-02-10T10:47:45.716Z,98.59
2024-02-10T10:49:59.668Z,98.56
2024-02-10T10:52:14.865Z,98.52
2024-02-10T10:54:31.243Z,98.26
2024-02-10T10:56:44.969Z,98.28
2024-02-10T10:59:01.180Z,98.05
2024-02-10T11:01:18.685Z,98.11
2024-02-10T11:03:32.289Z,98.21
2024-02-10T11:05:51.436Z,98.19
2024-02-10T11:08:12.493Z,98.21
2024-02-10T11:10:41.744Z,98.36
2024-02-10T11:13:00.046Z,98.52
2024-02-10T11:15:23.548Z,98.59
2024-02-10T11:17:37.075Z,98.68
2024-02-10T11:20:09.771Z,98.77
2024-02-10T11:22:32.548Z,98.73
2024-02-10T11:24:48.247Z,98.80
2024-02-10T11:27:01.420Z,98.80
2024-02-10T11:29:16.169Z,98.92
2024-02-10T11:31:31.187Z,98.95
2024-02-10T11:33:44.058Z,98.81
2024-02-10T11:35:57.294Z,98.73
2024-02-10T11:38:10.135Z,98.78
2024-02-10T11:40:22.940Z,98.71
2024-02-10T11:42:36.387Z,98.79
2024-02-10T11:44:49.217Z,98.85
2024-02-10T11:47:03.609Z,98.82
2024-02-10T11:49:16.665Z,98.82
2024-02-10T11:51:31.363Z,98.83
2024-02-10T11:53:47.233Z,99.00
2024-02-10T11:56:08.619Z,98.96
2024-02-10T11:58:21.992Z,99.05
2024-02-10T12:00:35.211Z,99.21
2024-02-10T12:02:48.133Z,99.15
2024-02-10T12:05:00.852Z,99.26
2024-02-10T12:07:14.568Z,99.30
2024-02-10T12:09:27.523Z,99.28
2024-02-10T12:11:40.594Z,99.24
2024-02-10T12:13:53.852Z,99.48
2024-02-10T12:16:12.653Z,99.46
2024-02-10T12:18:27.557Z,99.48
2024-02-10T12:20:41.877Z,99.61
2024-02-10T12:22:56.383Z,99.80
2024-02-10T12:25:09.714Z,99.67
2024-02-10T12:27:28.093Z,99.76
2024-02-10T12:29:43.174Z,99.83
2024-02-10T12:31:55.828Z,99.92
2024-02-10T12:34:09.204Z,99.83
2024-02-10T12:36:23.833Z,99.88
2024-02-10T12:38:36.530Z,99.95
2024-02-10T12:40:49.309Z,99.98
2024-02-10T12:43:02.348Z,99.96
2024-02-10T12:45:19.432Z,99.99
2024-02-10T12:47:32.711Z,99.96
2024-02-10T12:49:46.046Z,99.99
2024-02-10T12:51:59.098Z,100.00
2024-02-10T12:54:12.967Z,100.00
2024-02-10T12:56:27.084Z,99.99
2024-02-10T12:58:39.759Z,99.98
2024-02-10T13:00:52.839Z,100.00
2024-02-10T13:03:05.675Z,100.00
2024-02-10T13:05:20.537Z,100.00
2024-02-10T13:07:33.746Z,100.00
2024-02-10T13:09:46.531Z,100.00
2024-02-10T13:11:59.231Z,100.00
2024-02-10T13:14:13.893Z,100.00
2024-02-10T13:16:26.716Z,100.00
2024-02-10T13:18:45.129Z,100.00
2024-02-10T13:20:58.760Z,100.00
2024-02-10T13:23:12.108Z,100.00
2024-02-10T13:25:25.093Z,100.00
2024-02-10T13:27:37.946Z,100.00
2024-02-10T13:29:51.790Z,100.00
2024-02-10T13:32:04.736Z,100.00
2024-02-10T13:34:31.072Z,100.00
2024-02-10T13:36:47.675Z,100.00
2024-02-10T13:39:16.948Z,100.00
2024-02-10T13:41:45.879Z,100.00
2024-02-10T13:44:14.829Z,100.00
2024-02-10T13:46:43.843Z,100.00
2024-02-10T13:49:12.878Z,99.95
2024-02-10T13:51:41.784Z,99.90
2024-02-10T13:54:11.333Z,99.87
2024-02-10T13:56:40.490Z,99.62
2024-02-10T13:58:50.871Z,99.56
2024-02-10T14:01:03.840Z,99.57
2024-02-10T14:03:16.837Z,99.44
2024-02-10T14:05:44.222Z,99.67
2024-02-10T14:08:10.310Z,99.65
2024-02-10T14:10:26.914Z,99.32
2024-02-10T14:12:39.842Z,99.08
2024-02-10T14:14:52.413Z,99.29
2024-02-10T14:17:17.215Z,99.33
2024-02-10T14:19:29.914Z,99.31
2024-02-10T14:21:45.576Z,99.25
2024-02-10T14:23:58.361Z,99.10
2024-02-10T14:26:17.585Z,99.06
2024-02-10T14:28:41.333Z,99.21
2024-02-10T14:30:54.251Z,99.27
2024-02-10T14:33:10.746Z,99.43
2024-02-10T14:35:36.448Z,99.61
2024-02-10T14:37:59.757Z,99.76
2024-02-10T14:40:17.480Z,99.71
2024-02-10T14:42:30.101Z,99.65
2024-02-10T14:44:43.330Z,99.53
2024-02-10T14:46:57.352Z,99.17
2024-02-10T14:49:10.456Z,99.00
2024-02-10T14:51:23.153Z,98.95
2024-02-10T14:53:36.661Z,99.14
2024-02-10T14:55:50.434Z,99.14
2024-02-10T14:58:06.603Z,99.21
2024-02-10T15:00:33.503Z,99.29
2024-02-10T15:02:46.591Z,99.34
2024-02-10T15:04:59.377Z,99.34
2024-02-10T15:07:12.144Z,99.17
2024-02-10T15:09:24.909Z,98.97
2024-02-10T15:11:39.225Z,98.83
2024-02-10T15:13:52.143Z,98.86
2024-02-10T15:16:04.928Z,98.72
2024-02-10T15:18:17.516Z,98.64
2024-02-10T15:20:28.034Z,98.72
2024-02-10T15:22:42.268Z,98.71
2024-02-10T15:24:56.983Z,98.79
2024-02-10T15:27:10.325Z,98.81
2024-02-10T15:29:23.264Z,98.81
2024-02-10T15:31:36.550Z,98.81
2024-02-10T15:33:55.267Z,98.95
2024-02-10T15:36:24.345Z,98.88
2024-02-10T15:38:37.079Z,98.88
2024-02-10T15:40:55.316Z,98.95
2024-02-10T15:43:08.394Z,99.19
2024-02-10T15:45:27.255Z,99.28
2024-02-10T15:47:39.885Z,99.51
2024-02-10T15:49:57.851Z,99.61
2024-02-10T15:52:11.570Z,99.60
2024-02-10T15:54:24.934Z,99.50
2024-02-10T15:56:38.413Z,99.45
2024-02-10T15:58:56.600Z,99.57
2024-02-10T16:01:09.388Z,99.64
2024-02-10T16:03:23.378Z,99.65
2024-02-10T16:05:36.827Z,99.67
2024-02-10T16:07:54.271Z,99.50
2024-02-10T16:10:07.307Z,99.55
2024-02-10T16:12:20.862Z,99.86
2024-02-10T16:14:33.970Z,99.91
2024-02-10T16:16:46.961Z,99.94
2024-02-10T16:19:01.115Z,100.00
2024-02-10T16:21:19.976Z,100.00
2024-02-10T16:23:32.685Z,100.00
2024-02-10T16:25:46.031Z,100.00
2024-02-10T16:27:59.984Z,100.00
2024-02-10T16:30:14.634Z,100.00
2024-02-10T16:32:28.419Z,100.00
2024-02-10T16:34:48.967Z,100.00
2024-02-10T16:37:04.707Z,100.00
2024-02-10T16:39:17.442Z,100.00
2024-02-10T16:41:34.197Z,100.00
2024-02-10T16:43:48.113Z,100.00
2024-02-10T16:46:01.272Z,100.00
2024-02-10T16:48:17.053Z,100.00
2024-02-10T16:50:31.366Z,100.00
2024-02-10T16:52:44.422Z,100.00
2024-02-10T16:54:57.790Z,100.00
2024-02-10T16:57:10.595Z,100.00
2024-02-10T16:59:26.139Z,100.00
2024-02-10T17:01:40.644Z,100.00
2024-02-10T17:03:53.403Z,100.00
2024-02-10T17:06:09.436Z,100.00
2024-02-10T17:08:30.489Z,100.00
2024-02-10T17:10:44.223Z,100.00
2024-02-10T17:12:57.009Z,100.00
2024-02-10T17:15:11.320Z,100.00
2024-02-10T17:17:28.261Z,100.00
2024-02-10T17:19:41.222Z,100.00
2024-02-10T17:21:55.077Z,100.00
2024-02-10T17:24:08.597Z,100.00
2024-02-10T17:26:21.896Z,100.00
2024-02-10T17:28:34.617Z,100.00
2024-02-10T17:30:48.578Z,100.00
2024-02-10T17:33:01.303Z,100.00
2024-02-10T17:35:19.070Z,100.00
2024-02-10T17:37:33.961Z,100.00
2024-02-10T17:39:46.789Z,100.00
2024-02-10T17:41:59.450Z,100.00
2024-02-10T17:44:15.298Z,100.00
2024-02-10T17:46:31.923Z,100.00
2024-02-10T17:48:45.829Z,100.00
2024-02-10T17:50:59.452Z,100.00
2024-02-10T17:53:14.316Z,100.00
2024-02-10T17:55:29.150Z,100.00
2024-02-10T17:57:42.003Z,100.00
2024-02-10T17:59:59.463Z,100.00
2024-02-10T18:02:16.335Z,100.00
2024-02-10T18:04:29.157Z,100.00
2024-02-10T18:06:45.009Z,100.00
2024-02-10T18:08:58.705Z,100.00
2024-02-10T18:11:16.799Z,100.00
2024-02-10T18:13:29.848Z,100.00
2024-02-10T18:15:42.960Z,100.00
2024-02-10T18:17:55.767Z,100.00
2024-02-10T18:20:10.502Z,100.00
2024-02-10T18:22:23.839Z,100.00
2024-02-10T18:24:36.905Z,100.00
2024-02-10T18:26:49.495Z,100.00
2024-02-10T18:29:04.050Z,100.00
2024-02-10T18:31:16.954Z,100.00
2024-02-10T18:33:29.767Z,100.00
2024-02-10T18:35:47.978Z,100.00
2024-02-10T18:38:01.272Z,100.00
2024-02-10T18:40:16.097Z,100.00
2024-02-10T18:42:30.822Z,100.00
2024-02-10T18:44:45.956Z,100.00
2024-02-10T18:46:58.736Z,100.00
2024-02-10T18:49:12.769Z,100.00
2024-02-10T18:51:27.271Z,100.00
2024-02-10T18:53:40.322Z,100.00
2024-02-10T18:55:55.098Z,99.81
2024-02-10T18:58:10.124Z,99.32
2024-02-10T19:00:23.468Z,99.05
2024-02-10T19:02:37.661Z,98.58
2024-02-10T19:04:52.254Z,98.26
2024-02-10T19:07:06.003Z,97.47
2024-02-10T19:09:18.801Z,97.47
2024-02-10T19:11:32.130Z,97.04
2024-02-10T19:13:47.687Z,96.65
2024-02-10T19:16:01.001Z,96.35
2024-02-10T19:18:15.964Z,95.63
2024-02-10T19:20:28.949Z,94.76
2024-02-10T19:22:43.919Z,92.53
2024-02-10T19:24:57.420Z,92.58
2024-02-10T19:27:12.284Z,91.83
2024-02-10T19:29:28.100Z,92.07
2024-02-10T19:31:43.834Z,92.16
2024-02-10T19:33:56.637Z,91.48
2024-02-10T19:36:10.134Z,91.21
2024-02-10T19:38:29.819Z,91.05
2024-02-10T19:40:43.583Z,90.38
2024-02-10T19:42:58.136Z,90.43
2024-02-10T19:45:13.201Z,90.30
2024-02-10T19:47:26.432Z,89.86
2024-02-10T19:49:39.578Z,89.07
2024-02-10T19:51:52.500Z,89.28
2024-02-10T19:54:05.497Z,89.24
2024-02-10T19:56:19.212Z,88.85
2024-02-10T19:58:32.254Z,88.10
2024-02-10T20:00:45.715Z,88.07
2024-02-10T20:02:58.501Z,87.69
2024-02-10T20:05:13.399Z,87.45
2024-02-10T20:07:28.999Z,87.48
2024-02-10T20:09:41.653Z,87.01
2024-02-10T20:11:54.652Z,87.02
2024-02-10T20:14:08.596Z,86.82
2024-02-10T20:16:26.659Z,86.44
2024-02-10T20:18:39.505Z,86.18
2024-02-10T20:20:52.588Z,85.54
2024-02-10T20:23:07.036Z,86.42
2024-02-10T20:25:20.401Z,86.45
2024-02-10T20:27:34.072Z,86.19
2024-02-10T20:29:48.340Z,86.20
2024-02-10T20:32:01.322Z,86.33
2024-02-10T20:34:14.002Z,85.22
2024-02-10T20:36:28.995Z,84.59
2024-02-10T20:38:43.880Z,84.65
2024-02-10T20:40:56.965Z,84.31
2024-02-10T20:43:10.230Z,84.70
2024-02-10T20:45:23.758Z,84.50
2024-02-10T20:47:39.815Z,84.33
2024-02-10T20:49:54.303Z,84.41
2024-02-10T20:52:07.436Z,84.55
2024-02-10T20:54:22.803Z,84.17
2024-02-10T20:56:35.937Z,83.85
2024-02-10T20:58:51.550Z,84.29
2024-02-10T21:01:04.252Z,84.10
2024-02-10T21:03:17.007Z,83.01
2024-02-10T21:05:35.460Z,83.35
2024-02-10T21:07:49.166Z,83.01
2024-02-10T21:10:02.019Z,82.61
2024-02-10T21:12:15.092Z,82.06
2024-02-10T21:14:27.652Z,82.54
2024-02-10T21:16:44.010Z,83.11
2024-02-10T21:18:56.786Z,83.05
2024-02-10T21:21:09.921Z,82.64
2024-02-10T21:23:22.825Z,82.40
2024-02-10T21:25:36.102Z,82.12
2024-02-10T21:27:50.985Z,81.94
2024-02-10T21:30:06.963Z,82.57
2024-02-10T21:32:19.754Z,82.44
2024-02-10T21:34:34.480Z,82.11
2024-02-10T21:36:47.135Z,81.16
2024-02-10T21:38:59.697Z,82.16
2024-02-10T21:41:12.429Z,82.25
2024-02-10T21:43:25.124Z,82.48
2024-02-10T21:45:38.049Z,81.74
2024-02-10T21:47:54.088Z,81.77
2024-02-10T21:50:08.037Z,81.73
2024-02-10T21:52:20.822Z,81.87
2024-02-10T21:54:34.984Z,81.99
2024-02-10T21:56:47.685Z,81.54
2024-02-10T21:59:02.346Z,81.11
2024-02-10T22:01:19.236Z,81.40
2024-02-10T22:03:32.103Z,80.67
2024-02-10T22:05:45.078Z,79.92
2024-02-10T22:07:58.632Z,79.47
2024-02-10T22:10:13.939Z,79.86
2024-02-10T22:12:26.609Z,79.64
2024-02-10T22:14:40.012Z,79.81
2024-02-10T22:16:55.784Z,79.47
2024-02-10T22:19:09.297Z,79.03
2024-02-10T22:21:22.193Z,78.51
2024-02-10T22:23:35.061Z,78.94
2024-02-10T22:25:48.255Z,79.07
2024-02-10T22:28:01.048Z,78.64
2024-02-10T22:30:21.084Z,78.19
2024-02-10T22:32:33.787Z,78.42
2024-02-10T22:34:47.024Z,77.86
2024-02-10T22:36:59.636Z,78.72
2024-02-10T22:39:16.400Z,78.75
2024-02-10T22:41:29.113Z,78.16
2024-02-10T22:43:42.025Z,77.52
2024-02-10T22:45:54.799Z,77.70
2024-02-10T22:48:12.557Z,77.71
2024-02-10T22:50:25.884Z,77.91
2024-02-10T22:52:38.610Z,78.14
2024-02-10T22:54:52.313Z,78.46
2024-02-10T22:57:06.037Z,78.77
2024-02-10T22:59:19.021Z,79.08
2024-02-10T23:01:33.777Z,78.74
2024-02-10T23:03:48.157Z,78.22
2024-02-10T23:06:01.050Z,78.31
2024-02-10T23:08:18.166Z,78.45
2024-02-10T23:10:31.084Z,78.09
2024-02-10T23:12:47.100Z,78.23
2024-02-10T23:15:00.573Z,78.20
2024-02-10T23:17:15.265Z,78.13
2024-02-10T23:19:29.648Z,77.85
2024-02-10T23:21:46.232Z,77.67
2024-02-10T23:24:01.189Z,78.12
2024-02-10T23:26:13.942Z,77.86
2024-02-10T23:28:26.758Z,77.96
2024-02-10T23:30:40.536Z,78.20
2024-02-10T23:32:53.734Z,78.40
2024-02-10T23:35:06.557Z,78.14
2024-02-10T23:37:24.352Z,78.22
2024-02-10T23:39:37.188Z,78.56
2024-02-10T23:41:49.857Z,78.60
2024-02-10T23:44:02.615Z,78.28
2024-02-10T23:46:15.332Z,78.02
2024-02-10T23:48:28.048Z,78.66
2024-02-10T23:50:41.012Z,79.02
2024-02-10T23:52:56.463Z,78.77
2024-02-10T23:55:10.386Z,78.73
2024-02-10T23:57:24.707Z,78.82
2024-02-10T23:59:37.332Z,78.74
